createdAt,value
2019-05-13T00:01:07.111Z,74.60
2019-05-13T00:03:35.642Z,74.40
2019-05-13T00:06:04.998Z,74.40
2019-05-13T00:08:34.282Z,74.80
2019-05-13T00:11:04.426Z,75.10
2019-05-13T00:13:33.964Z,74.80
2019-05-13T00:16:03.702Z,74.60
2019-05-13T00:18:34.033Z,74.60
2019-05-13T00:21:03.905Z,74.80
2019-05-13T00:23:34.078Z,75.00
2019-05-13T00:26:03.991Z,75.10
2019-05-13T00:28:34.455Z,75.50
2019-05-13T00:31:03.931Z,75.30
2019-05-13T00:33:33.855Z,75.40
2019-05-13T00:36:04.130Z,75.70
2019-05-13T00:38:33.793Z,75.90
2019-05-13T00:41:03.785Z,76.00
2019-05-13T00:43:33.956Z,76.10
2019-05-13T00:46:03.884Z,76.10
2019-05-13T00:48:33.640Z,76.30
2019-05-13T00:51:03.706Z,76.40
2019-05-13T00:53:35.277Z,76.50
2019-05-13T00:56:04.925Z,76.30
2019-05-13T00:58:34.877Z,76.60
2019-05-13T01:01:04.452Z,76.50
2019-05-13T01:03:34.038Z,76.80
2019-05-13T01:06:04.238Z,76.80
2019-05-13T01:08:33.991Z,76.80
2019-05-13T01:11:04.318Z,76.80
2019-05-13T01:13:34.456Z,76.70
2019-05-13T01:16:04.011Z,76.70
2019-05-13T01:18:33.998Z,76.70
2019-05-13T01:21:04.468Z,77.20
2019-05-13T01:23:34.359Z,77.50
2019-05-13T01:26:04.144Z,78.40
2019-05-13T01:28:34.443Z,77.80
2019-05-13T01:31:04.305Z,78.00
2019-05-13T01:33:35.022Z,78.10
2019-05-13T01:36:05.469Z,78.40
2019-05-13T01:38:34.812Z,78.40
2019-05-13T01:41:04.611Z,78.50
2019-05-13T01:43:33.965Z,78.60
2019-05-13T01:46:04.551Z,78.60
2019-05-13T01:48:33.958Z,78.80
2019-05-13T01:51:03.914Z,79.10
2019-05-13T01:53:33.836Z,79.20
2019-05-13T01:56:06.331Z,79.50
2019-05-13T01:58:35.587Z,79.90
2019-05-13T02:01:05.317Z,80.00
2019-05-13T02:03:34.693Z,80.00
2019-05-13T02:06:04.037Z,80.20
2019-05-13T02:08:33.809Z,80.20
2019-05-13T02:11:04.296Z,80.20
2019-05-13T02:13:34.619Z,80.20
2019-05-13T02:16:04.401Z,80.30
2019-05-13T02:18:34.418Z,80.70
2019-05-13T02:21:07.247Z,81.00
2019-05-13T02:23:36.782Z,81.20
2019-05-13T02:26:07.460Z,81.10
2019-05-13T02:28:36.728Z,81.20
2019-05-13T02:31:06.053Z,81.20
2019-05-13T02:33:35.694Z,81.40
2019-05-13T02:36:05.304Z,81.60
2019-05-13T02:38:35.818Z,82.10
2019-05-13T02:41:05.759Z,82.40
2019-05-13T02:43:35.109Z,82.60
2019-05-13T02:46:04.726Z,82.90
2019-05-13T02:48:34.116Z,82.90
2019-05-13T02:51:04.018Z,83.00
2019-05-13T02:53:33.884Z,83.10
2019-05-13T02:56:03.779Z,83.40
2019-05-13T02:58:33.738Z,83.80
2019-05-13T03:01:03.779Z,84.00
2019-05-13T03:03:33.449Z,84.40
2019-05-13T03:06:03.354Z,84.70
2019-05-13T03:08:43.684Z,85.00
2019-05-13T03:11:03.893Z,85.30
2019-05-13T03:13:33.357Z,85.50
2019-05-13T03:16:27.787Z,85.90
2019-05-13T03:18:57.121Z,86.10
2019-05-13T03:21:26.813Z,86.30
2019-05-13T03:23:56.100Z,86.50
2019-05-13T03:26:25.728Z,86.90
2019-05-13T03:28:55.032Z,87.10
2019-05-13T03:31:26.208Z,87.10
2019-05-13T03:33:56.533Z,87.20
2019-05-13T03:36:26.779Z,87.50
2019-05-13T03:39:05.941Z,87.90
2019-05-13T03:41:32.735Z,87.90
2019-05-13T03:44:03.724Z,88.00
2019-05-13T03:46:36.289Z,88.30
2019-05-13T03:49:07.249Z,88.70
2019-05-13T03:51:36.600Z,89.10
2019-05-13T03:54:06.660Z,89.40
2019-05-13T03:56:36.262Z,89.00
2019-05-13T03:59:05.619Z,89.50
2019-05-13T04:01:35.176Z,89.50
2019-05-13T04:04:04.885Z,90.00
2019-05-13T04:06:34.580Z,89.90
2019-05-13T04:09:20.568Z,90.00
2019-05-13T04:11:37.189Z,90.20
2019-05-13T04:14:06.523Z,90.20
2019-05-13T04:16:36.003Z,90.30
2019-05-13T04:19:05.610Z,90.40
2019-05-13T04:21:34.882Z,90.50
2019-05-13T04:24:04.489Z,90.50
2019-05-13T04:26:34.434Z,90.40
2019-05-13T04:29:04.069Z,90.20
2019-05-13T04:31:33.675Z,89.90
2019-05-13T04:34:03.165Z,89.70
2019-05-13T04:36:32.503Z,89.10
2019-05-13T04:39:03.200Z,88.60
2019-05-13T04:41:33.492Z,88.00
2019-05-13T04:44:03.069Z,87.50
2019-05-13T04:46:33.064Z,86.50
2019-05-13T04:49:02.528Z,85.60
2019-05-13T04:51:33.078Z,84.40
2019-05-13T04:54:03.263Z,84.10
2019-05-13T04:56:33.190Z,83.60
2019-05-13T04:59:03.183Z,83.40
2019-05-13T05:01:59.212Z,83.00
2019-05-13T05:04:37.039Z,82.20
2019-05-13T05:07:18.419Z,82.20
2019-05-13T05:10:42.884Z,81.90
2019-05-13T05:13:42.876Z,81.60
2019-05-13T05:16:32.664Z,80.50
2019-05-13T05:19:52.230Z,79.90
2019-05-13T05:22:47.515Z,79.60
2019-05-13T05:25:38.514Z,79.60
2019-05-13T05:28:41.472Z,79.20
2019-05-13T05:32:16.454Z,78.90
2019-05-13T05:35:14.639Z,79.80
2019-05-13T05:38:12.061Z,81.00
2019-05-13T05:40:44.080Z,80.90
2019-05-13T05:43:14.737Z,79.30
2019-05-13T05:45:44.095Z,79.20
2019-05-13T05:48:16.925Z,79.20
2019-05-13T05:50:48.395Z,79.10
2019-05-13T05:53:21.872Z,78.40
2019-05-13T05:55:54.751Z,77.80
2019-05-13T05:58:24.737Z,77.80
2019-05-13T06:00:57.387Z,77.90
2019-05-13T06:03:28.050Z,77.50
2019-05-13T06:05:57.706Z,77.20
2019-05-13T06:08:27.281Z,76.70
2019-05-13T06:10:56.876Z,76.90
2019-05-13T06:13:26.180Z,76.70
2019-05-13T06:15:55.743Z,75.80
2019-05-13T06:18:25.698Z,73.90
2019-05-13T06:20:55.404Z,74.60
2019-05-13T06:23:24.967Z,73.80
2019-05-13T06:25:54.567Z,73.30
2019-05-13T06:28:23.859Z,72.90
2019-05-13T06:30:53.951Z,73.10
2019-05-13T06:33:23.198Z,73.30
2019-05-13T06:35:52.511Z,73.10
2019-05-13T06:38:22.687Z,72.80
2019-05-13T06:41:00.382Z,72.30
2019-05-13T06:43:23.255Z,72.30
2019-05-13T06:45:52.536Z,71.90
2019-05-13T06:48:23.126Z,71.30
2019-05-13T06:50:52.812Z,71.50
2019-05-13T06:53:22.343Z,71.80
2019-05-13T06:55:52.314Z,71.60
2019-05-13T06:58:22.398Z,72.40
2019-05-13T07:00:52.089Z,72.40
2019-05-13T07:03:22.225Z,72.20
2019-05-13T07:05:52.487Z,72.10
2019-05-13T07:08:22.559Z,71.80
2019-05-13T07:10:51.824Z,71.20
2019-05-13T07:13:21.910Z,70.70
2019-05-13T07:15:52.186Z,70.40
2019-05-13T07:18:21.972Z,69.80
2019-05-13T07:20:52.993Z,69.10
2019-05-13T07:23:22.699Z,69.70
2019-05-13T07:25:52.589Z,69.50
2019-05-13T07:28:22.425Z,69.00
2019-05-13T07:30:51.815Z,69.40
2019-05-13T07:33:21.495Z,68.90
2019-05-13T07:35:58.132Z,68.20
2019-05-13T07:38:23.704Z,68.40
2019-05-13T07:41:06.035Z,68.20
2019-05-13T07:43:35.389Z,66.50
2019-05-13T07:46:04.792Z,66.00
2019-05-13T07:48:34.039Z,65.70
2019-05-13T07:51:04.638Z,65.70
2019-05-13T07:53:34.596Z,64.60
2019-05-13T07:56:04.527Z,63.60
2019-05-13T07:58:37.366Z,63.10
2019-05-13T08:01:05.185Z,63.20
2019-05-13T08:03:34.724Z,62.20
2019-05-13T08:06:04.000Z,62.60
2019-05-13T08:08:33.273Z,62.10
2019-05-13T08:11:02.871Z,61.10
2019-05-13T08:13:32.475Z,61.00
2019-05-13T08:16:02.170Z,60.30
2019-05-13T08:18:32.209Z,60.60
2019-05-13T08:21:02.352Z,59.90
2019-05-13T08:23:32.509Z,58.70
2019-05-13T08:26:02.626Z,58.60
2019-05-13T08:28:32.498Z,56.80
2019-05-13T08:31:02.319Z,56.30
2019-05-13T08:33:32.280Z,56.80
2019-05-13T08:36:02.063Z,56.20
2019-05-13T08:38:32.072Z,56.70
2019-05-13T08:41:02.129Z,55.80
2019-05-13T08:43:31.952Z,55.20
2019-05-13T08:46:02.197Z,49.20
2019-05-13T08:48:32.391Z,48.50
2019-05-13T08:51:03.374Z,48.50
2019-05-13T08:53:32.717Z,47.30
2019-05-13T08:56:02.009Z,46.10
2019-05-13T08:58:31.985Z,44.90
2019-05-13T09:01:02.443Z,44.30
2019-05-13T09:03:32.730Z,44.90
2019-05-13T09:06:02.952Z,44.40
2019-05-13T09:08:32.605Z,43.40
2019-05-13T09:11:02.391Z,40.80
2019-05-13T09:13:32.976Z,40.10
2019-05-13T09:16:02.804Z,39.50
2019-05-13T09:18:32.480Z,39.20
2019-05-13T09:21:02.639Z,40.00
2019-05-13T09:23:32.159Z,39.30
2019-05-13T09:26:02.576Z,39.80
2019-05-13T09:28:32.524Z,39.20
2019-05-13T09:31:02.330Z,38.60
2019-05-13T09:33:32.590Z,39.20
2019-05-13T09:36:02.510Z,38.10
2019-05-13T09:38:32.714Z,34.60
2019-05-13T09:41:02.380Z,36.70
2019-05-13T09:43:31.895Z,36.60
2019-05-13T09:46:01.859Z,36.70
2019-05-13T09:48:32.117Z,36.50
2019-05-13T09:51:02.609Z,37.30
2019-05-13T09:53:32.663Z,38.00
2019-05-13T09:56:02.671Z,37.10
2019-05-13T09:58:33.051Z,37.50
2019-05-13T10:01:02.739Z,38.10
2019-05-13T10:03:33.258Z,38.00
2019-05-13T10:06:03.046Z,35.70
2019-05-13T10:08:32.896Z,35.60
2019-05-13T10:11:02.376Z,34.90
2019-05-13T10:13:32.091Z,32.30
2019-05-13T10:16:01.457Z,33.00
2019-05-13T10:18:32.589Z,33.10
2019-05-13T10:21:02.434Z,34.30
2019-05-13T10:23:33.021Z,35.70
2019-05-13T10:26:05.733Z,34.00
2019-05-13T10:28:35.855Z,33.80
2019-05-13T10:31:05.884Z,35.20
2019-05-13T10:33:35.705Z,36.20
2019-05-13T10:36:05.209Z,35.50
2019-05-13T10:38:34.595Z,36.50
2019-05-13T10:41:04.018Z,35.40
2019-05-13T10:43:39.099Z,35.40
2019-05-13T10:46:05.021Z,35.10
2019-05-13T10:48:35.495Z,34.30
2019-05-13T10:51:05.294Z,35.00
2019-05-13T10:53:34.678Z,35.30
2019-05-13T10:56:03.932Z,33.70
2019-05-13T10:58:33.228Z,32.60
2019-05-13T11:01:03.241Z,31.50
2019-05-13T11:03:33.298Z,31.70
2019-05-13T11:06:02.783Z,31.80
2019-05-13T11:08:33.054Z,32.50
2019-05-13T11:11:03.124Z,32.70
2019-05-13T11:13:50.583Z,32.40
2019-05-13T11:16:03.788Z,32.00
2019-05-13T11:18:33.180Z,32.50
2019-05-13T11:21:02.982Z,33.10
2019-05-13T11:23:32.553Z,32.60
2019-05-13T11:26:03.028Z,32.90
2019-05-13T11:28:32.835Z,30.00
2019-05-13T11:31:03.369Z,27.50
2019-05-13T11:33:33.284Z,27.60
2019-05-13T11:36:03.546Z,28.30
2019-05-13T11:38:33.452Z,28.10
2019-05-13T11:41:03.324Z,26.20
2019-05-13T11:46:04.195Z,26.90
2019-05-13T11:48:33.468Z,26.90
2019-05-13T11:51:04.259Z,26.10
2019-05-13T11:53:37.153Z,26.80
2019-05-13T11:56:05.271Z,28.70
2019-05-13T11:58:34.707Z,27.60
2019-05-13T12:01:05.490Z,27.60
2019-05-13T12:03:35.140Z,28.30
2019-05-13T12:06:04.541Z,29.30
2019-05-13T12:08:34.471Z,29.70
2019-05-13T12:11:04.900Z,28.40
2019-05-13T12:13:35.190Z,28.40
2019-05-13T12:16:04.715Z,28.20
2019-05-13T12:18:34.288Z,27.90
2019-05-13T12:21:04.400Z,27.10
2019-05-13T12:23:34.151Z,27.80
2019-05-13T12:26:05.323Z,27.50
2019-05-13T12:28:35.404Z,28.40
2019-05-13T12:31:04.790Z,27.50
2019-05-13T12:33:34.299Z,28.30
2019-05-13T12:36:03.740Z,28.90
2019-05-13T12:38:33.640Z,29.90
2019-05-13T12:41:05.283Z,29.50
2019-05-13T12:43:34.368Z,29.50
2019-05-13T12:46:04.057Z,26.50
2019-05-13T12:48:33.687Z,27.30
2019-05-13T12:51:03.436Z,29.60
2019-05-13T12:53:32.965Z,30.10
2019-05-13T12:56:03.520Z,29.30
2019-05-13T12:58:34.198Z,28.30
2019-05-13T13:01:04.386Z,29.00
2019-05-13T13:03:33.805Z,29.30
2019-05-13T13:06:25.651Z,29.60
2019-05-13T13:08:43.342Z,29.40
2019-05-13T13:11:06.474Z,30.20
2019-05-13T13:13:57.347Z,30.50
2019-05-13T13:16:06.839Z,30.10
2019-05-13T13:18:36.552Z,29.60
2019-05-13T13:21:07.866Z,29.10
2019-05-13T13:23:37.997Z,29.30
2019-05-13T13:26:15.298Z,28.80
2019-05-13T13:28:38.802Z,29.60
2019-05-13T13:31:08.089Z,29.80
2019-05-13T13:33:38.276Z,29.50
2019-05-13T13:36:07.628Z,29.90
2019-05-13T13:38:37.533Z,29.70
2019-05-13T13:41:06.958Z,29.40
2019-05-13T13:43:38.308Z,29.10
2019-05-13T13:46:23.196Z,29.50
2019-05-13T13:48:38.651Z,29.40
2019-05-13T13:51:08.360Z,30.00
2019-05-13T13:53:38.837Z,29.50
2019-05-13T13:56:08.472Z,29.60
2019-05-13T13:58:37.816Z,29.30
2019-05-13T14:01:17.520Z,29.40
2019-05-13T14:03:38.094Z,29.70
2019-05-13T14:06:08.426Z,29.70
2019-05-13T14:06:29.231Z,27.70
2019-05-13T14:08:37.993Z,29.10
2019-05-13T14:11:07.520Z,29.30
2019-05-13T14:13:37.023Z,29.10
2019-05-13T14:16:21.491Z,28.60
2019-05-13T14:18:37.758Z,28.60
2019-05-13T14:21:07.030Z,28.70
2019-05-13T14:23:37.970Z,28.20
2019-05-13T14:26:07.516Z,28.60
2019-05-13T14:28:37.050Z,29.40
2019-05-13T14:31:06.670Z,28.40
2019-05-13T14:33:37.167Z,28.90
2019-05-13T14:36:06.804Z,28.60
2019-05-13T14:38:36.359Z,28.80
2019-05-13T14:41:08.997Z,29.20
2019-05-13T14:43:36.713Z,28.90
2019-05-13T14:46:06.340Z,29.00
2019-05-13T14:48:35.713Z,28.70
2019-05-13T14:51:05.387Z,28.90
2019-05-13T14:53:34.714Z,29.10
2019-05-13T14:56:04.308Z,28.20
2019-05-13T14:58:33.603Z,27.30
2019-05-13T15:01:33.992Z,27.80
2019-05-13T15:03:34.210Z,27.80
2019-05-13T15:06:04.219Z,27.10
2019-05-13T15:08:33.512Z,27.50
2019-05-13T15:11:02.830Z,27.30
2019-05-13T15:13:32.441Z,26.80
2019-05-13T15:16:01.766Z,26.40
2019-05-13T15:18:32.672Z,26.10
2019-05-13T15:21:07.887Z,26.60
2019-05-13T15:23:42.211Z,25.40
2019-05-13T15:26:13.452Z,25.10
2019-05-13T15:28:42.762Z,24.80
2019-05-13T15:31:12.829Z,25.20
2019-05-13T15:33:42.477Z,25.70
2019-05-13T15:36:12.114Z,25.10
2019-05-13T15:38:41.836Z,25.70
2019-05-13T15:41:15.270Z,25.10
2019-05-13T15:43:42.745Z,24.30
2019-05-13T15:46:13.362Z,23.90
2019-05-13T15:48:42.704Z,22.90
2019-05-13T15:51:12.121Z,22.90
2019-05-13T15:53:43.773Z,23.20
2019-05-13T15:56:12.950Z,22.20
2019-05-13T15:58:44.489Z,22.10
2019-05-13T16:01:13.215Z,21.80
2019-05-13T16:03:42.837Z,21.30
2019-05-13T16:06:12.432Z,21.80
2019-05-13T16:08:43.309Z,22.00
2019-05-13T16:11:12.879Z,22.50
2019-05-13T16:13:42.540Z,23.00
2019-05-13T16:16:12.241Z,24.10
2019-05-13T16:18:42.088Z,25.00
2019-05-13T16:21:12.072Z,25.00
2019-05-13T16:23:42.848Z,25.20
2019-05-13T16:26:12.386Z,25.60
2019-05-13T16:28:42.443Z,26.30
2019-05-13T16:31:12.168Z,26.20
2019-05-13T16:33:41.813Z,25.70
2019-05-13T16:36:12.728Z,24.50
2019-05-13T16:38:42.343Z,24.30
2019-05-13T16:41:12.454Z,24.50
2019-05-13T16:43:42.825Z,25.10
2019-05-13T16:46:12.571Z,25.30
2019-05-13T16:48:41.911Z,25.30
2019-05-13T16:51:12.538Z,26.10
2019-05-13T16:53:42.566Z,26.60
2019-05-13T16:56:25.840Z,26.20
2019-05-13T16:58:43.516Z,26.30
2019-05-13T17:01:13.163Z,26.40
2019-05-13T17:03:42.440Z,26.40
2019-05-13T17:06:12.707Z,27.00
2019-05-13T17:08:42.731Z,27.60
2019-05-13T17:11:12.078Z,26.80
2019-05-13T17:13:42.351Z,26.70
2019-05-13T17:16:12.175Z,27.20
2019-05-13T17:18:41.921Z,27.20
2019-05-13T17:21:11.523Z,28.10
2019-05-13T17:23:41.879Z,28.00
2019-05-13T17:26:11.783Z,28.20
2019-05-13T17:28:41.677Z,28.00
2019-05-13T17:31:11.761Z,27.70
2019-05-13T17:33:41.836Z,27.80
2019-05-13T17:36:12.400Z,27.60
2019-05-13T17:38:42.401Z,27.80
2019-05-13T17:41:12.310Z,27.50
2019-05-13T17:43:42.014Z,28.20
2019-05-13T17:46:11.540Z,28.30
2019-05-13T17:48:41.725Z,28.00
2019-05-13T17:51:13.109Z,28.60
2019-05-13T17:53:42.464Z,28.30
2019-05-13T17:56:11.777Z,28.40
2019-05-13T17:58:42.040Z,28.70
2019-05-13T18:01:12.078Z,29.50
2019-05-13T18:03:41.752Z,29.40
2019-05-13T18:06:11.508Z,29.50
2019-05-13T18:08:41.276Z,29.90
2019-05-13T18:11:11.414Z,30.00
2019-05-13T18:13:43.589Z,29.80
2019-05-13T18:16:12.666Z,30.20
2019-05-13T18:18:46.917Z,30.50
2019-05-13T18:21:13.201Z,30.90
2019-05-13T18:23:43.129Z,31.00
2019-05-13T18:26:13.411Z,32.20
2019-05-13T18:28:43.554Z,31.10
2019-05-13T18:31:12.882Z,31.90
2019-05-13T18:33:42.582Z,31.90
2019-05-13T18:36:12.175Z,32.20
2019-05-13T18:38:41.957Z,31.60
2019-05-13T18:41:11.986Z,32.20
2019-05-13T18:43:41.481Z,32.30
2019-05-13T18:46:12.341Z,32.80
2019-05-13T18:48:57.790Z,33.10
2019-05-13T18:51:14.359Z,33.60
2019-05-13T18:53:43.858Z,34.00
2019-05-13T18:56:13.293Z,34.60
2019-05-13T18:58:42.595Z,34.90
2019-05-13T19:01:12.052Z,35.10
2019-05-13T19:03:41.692Z,35.40
2019-05-13T19:06:11.740Z,35.80
2019-05-13T19:08:41.606Z,36.30
2019-05-13T19:11:11.736Z,36.80
2019-05-13T19:13:41.838Z,37.30
2019-05-13T19:16:11.971Z,38.00
2019-05-13T19:18:42.423Z,38.10
2019-05-13T19:21:11.731Z,38.10
2019-05-13T19:23:41.884Z,38.40
2019-05-13T19:26:11.416Z,38.80
2019-05-13T19:28:40.926Z,38.90
2019-05-13T19:31:11.566Z,39.20
2019-05-13T19:33:41.607Z,39.50
2019-05-13T19:36:11.768Z,40.10
2019-05-13T19:38:42.220Z,40.00
2019-05-13T19:41:12.099Z,40.20
2019-05-13T19:43:42.016Z,40.60
2019-05-13T19:46:11.668Z,41.10
2019-05-13T19:48:41.710Z,41.20
2019-05-13T19:51:11.613Z,41.50
2019-05-13T19:53:41.531Z,41.70
2019-05-13T19:56:12.418Z,41.70
2019-05-13T19:58:42.116Z,42.60
2019-05-13T20:01:11.782Z,43.00
2019-05-13T20:03:42.344Z,43.80
2019-05-13T20:06:12.370Z,43.70
2019-05-13T20:08:41.882Z,44.60
2019-05-13T20:11:11.694Z,44.70
2019-05-13T20:13:41.906Z,45.00
2019-05-13T20:16:11.859Z,46.20
2019-05-13T20:18:41.661Z,46.40
2019-05-13T20:21:13.524Z,46.30
2019-05-13T20:23:42.583Z,46.50
2019-05-13T20:26:12.609Z,46.70
2019-05-13T20:28:42.680Z,47.30
2019-05-13T20:31:12.767Z,48.10
2019-05-13T20:33:43.013Z,48.00
2019-05-13T20:36:13.099Z,48.60
2019-05-13T20:38:42.473Z,49.50
2019-05-13T20:41:12.122Z,50.10
2019-05-13T20:43:42.551Z,50.30
2019-05-13T20:46:12.451Z,51.30
2019-05-13T20:48:41.779Z,52.30
2019-05-13T20:51:11.512Z,52.20
2019-05-13T20:53:41.328Z,52.70
2019-05-13T20:56:10.794Z,52.90
2019-05-13T20:58:42.114Z,52.50
2019-05-13T21:01:11.284Z,53.20
2019-05-13T21:03:42.065Z,52.40
2019-05-13T21:06:11.798Z,52.50
2019-05-13T21:08:41.608Z,53.00
2019-05-13T21:11:11.645Z,53.10
2019-05-13T21:13:41.400Z,53.40
2019-05-13T21:16:11.410Z,53.30
2019-05-13T21:18:42.114Z,53.50
2019-05-13T21:21:11.900Z,53.80
2019-05-13T21:23:41.977Z,54.10
2019-05-13T21:26:14.969Z,54.50
2019-05-13T21:28:43.013Z,55.40
2019-05-13T21:31:12.628Z,55.50
2019-05-13T21:33:42.264Z,55.60
2019-05-13T21:36:12.275Z,55.90
2019-05-13T21:38:41.897Z,56.50
2019-05-13T21:41:11.759Z,56.70
2019-05-13T21:43:41.598Z,56.80
2019-05-13T21:46:12.019Z,56.90
2019-05-13T21:48:41.965Z,57.00
2019-05-13T21:51:13.398Z,56.90
2019-05-13T21:53:42.326Z,57.10
2019-05-13T21:56:12.242Z,57.00
2019-05-13T21:58:41.835Z,57.00
2019-05-13T22:01:11.183Z,57.10
2019-05-13T22:03:42.002Z,56.90
2019-05-13T22:06:12.068Z,56.80
2019-05-13T22:08:41.763Z,56.90
2019-05-13T22:11:12.090Z,56.80
2019-05-13T22:13:42.033Z,57.00
2019-05-13T22:16:11.540Z,56.90
2019-05-13T22:18:41.879Z,57.00
2019-05-13T22:21:12.178Z,57.30
2019-05-13T22:23:41.720Z,57.70
2019-05-13T22:26:11.668Z,57.90
2019-05-13T22:28:41.822Z,57.70
2019-05-13T22:31:11.879Z,57.70
2019-05-13T22:33:41.310Z,57.90
2019-05-13T22:36:11.821Z,58.30
2019-05-13T22:38:42.603Z,58.30
2019-05-13T22:41:12.498Z,58.60
2019-05-13T22:43:54.648Z,59.00
2019-05-13T22:46:14.155Z,59.50
2019-05-13T22:48:45.780Z,59.70
2019-05-13T22:51:15.320Z,60.50
2019-05-13T22:53:44.725Z,60.90
2019-05-13T22:56:14.083Z,60.90
2019-05-13T22:58:43.464Z,61.40
2019-05-13T23:01:13.027Z,61.90
2019-05-13T23:03:42.398Z,62.00
2019-05-13T23:06:12.351Z,62.30
2019-05-13T23:08:42.257Z,62.60
2019-05-13T23:11:12.149Z,63.00
2019-05-13T23:13:42.186Z,63.30
2019-05-13T23:16:11.844Z,63.40
2019-05-13T23:18:42.090Z,63.80
2019-05-13T23:21:12.066Z,64.60
2019-05-13T23:23:41.419Z,64.70
2019-05-13T23:26:11.867Z,65.20
2019-05-13T23:28:42.593Z,65.00
2019-05-13T23:31:13.280Z,65.50
2019-05-13T23:33:42.695Z,65.30
2019-05-13T23:36:12.174Z,65.20
2019-05-13T23:38:41.583Z,65.80
2019-05-13T23:41:11.430Z,66.10
2019-05-13T23:43:41.307Z,66.30
2019-05-13T23:46:11.749Z,66.50
2019-05-13T23:48:41.860Z,66.40
2019-05-13T23:51:12.906Z,66.00
2019-05-13T23:53:42.191Z,66.00
2019-05-13T23:56:11.485Z,66.70
2019-05-13T23:58:41.405Z,65.30
